EPWR Airport Information

Runway Information
Runway 12 Length 8202 ft width 197 ft
Elevation 404 ft Threshold 0 ft Heading 116
Runway 30 Length 8202 ft Width 197 ft
Elevation 400 ft Threshold 0 ft Heading 296
Airport Frequencies
Type TWR Name WROCLAW TW Frequency 127.225 MHZ
Airport Navaids
Type NDB Name Wroclaw Frequency 255 KHZ
Type NDB Name Wroclaw Frequency 525 KHZ
Type VOR-DME Name Trzebnica Frequency 113600 KHZ
Airport Weather Information & NOTAM
ADDS - METARS form results

(1813 UTC 19 January 2019)
Data provider http://aviationweather.gov/metar/data/
 
METAR text: EPWR 191800Z 12004KT CAVOK M03/M05 Q1020
Conditions at: EPWR (WROCLAW/STRACHOW, PL) observed 1800 UTC 19 January 2019
Temperature: -3.0°C (27°F)
Dewpoint: -5.0°C (23°F) [RH = 86%]
Pressure (altimeter): 30.12 inches Hg (1020.0 mb)
Winds: from the ESE (120 degrees) at 5 MPH (4 knots; 2.1 m/s)
Visibility: 6 or more miles (10+ km)
Ceiling: ceiling and visibility are OK
Clouds: unknown
Weather: no significant weather observed at this time

METAR text: EPWR 191730Z 11003KT CAVOK M03/M05 Q1020
Conditions at: EPWR (WROCLAW/STRACHOW, PL) observed 1730 UTC 19 January 2019
Temperature: -3.0°C (27°F)
Dewpoint: -5.0°C (23°F) [RH = 86%]
Pressure (altimeter): 30.12 inches Hg (1020.0 mb)
Winds: from the ESE (110 degrees) at 3 MPH (3 knots; 1.5 m/s)
Visibility: 6 or more miles (10+ km)
Ceiling: ceiling and visibility are OK
Clouds: unknown
Weather: no significant weather observed at this time

Forecast for: EPWR (WROCLAW/STRACHOW, PL)
Text: TAF EPWR 191730Z 1918/2018 11004KT CAVOK
Forecast period: 1800 UTC 19 January 2019 to 1800 UTC 20 January 2019
Forecast type: FROM: standard forecast or significant change
Winds: from the ESE (110 degrees) at 5 MPH (4 knots; 2.1 m/s)
Visibility: 6 or more miles 10+ km)
Ceiling: unknown
Clouds: missing
Weather: NSW  (no significant weather)
Text: TEMPO 2000/2007 3000 BR
Forecast period: 0000 to 0700 UTC 20 January 2019
Forecast type: TEMPORARY: The following changes expected for less than half the time period
Visibility: 1.86 miles (2.99 km)
Ceiling: unknown
Clouds: missing
Weather: BR  (mist)
Text: PROB30 2002/2007 0600 FZFG
Forecast period: 0200 to 0700 UTC 20 January 2019
Forecast type: PROBABLE: 30 percent likelihood of the following during this time
Visibility: 0.37 miles (0.60 km)
Ceiling: unknown
Clouds: missing
Weather: FZFG  (freezing fog)